Time;durP1;ratioP1;P1;durP2;ratioP2;P2;SDS_P1;SDS_P2;PMS_P1;PMS_P2;Temp;Humidity;BMP_temperature;BMP_pressure;BME280_temperature;BME280_humidity;BME280_pressure;Samples;Min_cycle;Max_cycle;Signal;HPM_P1;HPM_P2
2023/01/26 00:02:18;;;;;;;50.72;30.52;;;-0.60;99.90;;;;;;4949581;29;20425;-72
2023/01/26 00:04:45;;;;;;;55.80;30.77;;;-0.60;99.90;;;;;;4953708;29;20433;-73
2023/01/26 00:07:12;;;;;;;56.33;30.00;;;-0.70;99.90;;;;;;4953436;29;20444;-72
2023/01/26 00:09:38;;;;;;;55.63;31.00;;;-0.60;99.90;;;;;;4952210;28;20445;-73
2023/01/26 00:12:07;;;;;;;57.45;30.80;;;-0.60;99.90;;;;;;4946938;29;20820;-72
2023/01/26 00:14:48;;;;;;;58.92;31.13;;;-0.70;99.90;;;;;;4950664;29;20433;-72
2023/01/26 00:17:24;;;;;;;59.20;31.90;;;-0.70;99.90;;;;;;4952605;29;20422;-71
2023/01/26 00:19:52;;;;;;;58.78;31.27;;;-0.70;99.90;;;;;;4951301;28;20421;-72
2023/01/26 00:22:19;;;;;;;56.92;30.73;;;-0.70;99.90;;;;;;4949884;29;20932;-72
2023/01/26 00:24:45;;;;;;;60.38;31.42;;;-0.70;99.90;;;;;;4954670;29;20445;-72
2023/01/26 00:27:14;;;;;;;54.35;30.15;;;-0.70;99.90;;;;;;4951719;29;20434;-72
2023/01/26 00:29:40;;;;;;;57.35;30.95;;;-0.70;99.90;;;;;;4953174;28;20425;-73
2023/01/26 00:32:07;;;;;;;54.05;29.15;;;-0.70;99.90;;;;;;4949202;29;20426;-72
2023/01/26 00:34:34;;;;;;;55.13;29.95;;;-0.80;99.90;;;;;;4947316;28;20426;-71
2023/01/26 00:37:00;;;;;;;52.78;30.75;;;-0.80;99.90;;;;;;4947111;29;20421;-71
2023/01/26 00:39:27;;;;;;;57.23;31.20;;;-0.80;99.90;;;;;;4939053;29;20449;-72
2023/01/26 00:42:08;;;;;;;53.95;30.65;;;-0.90;99.90;;;;;;4937402;29;20443;-73
2023/01/26 00:44:38;;;;;;;51.90;29.65;;;-0.90;99.90;;;;;;4928024;29;20467;-72
2023/01/26 00:47:05;;;;;;;54.75;30.50;;;-0.90;99.90;;;;;;4928825;29;20902;-72
2023/01/26 00:49:32;;;;;;;54.33;31.17;;;-0.90;99.90;;;;;;4939948;29;21141;-72
2023/01/26 00:51:59;;;;;;;59.65;33.17;;;-1.00;99.90;;;;;;4946229;29;20447;-72
2023/01/26 00:54:26;;;;;;;51.25;28.98;;;-1.00;99.90;;;;;;4946926;29;20422;-72
2023/01/26 00:56:52;;;;;;;52.90;30.33;;;-0.90;99.90;;;;;;4947297;29;20429;-73
2023/01/26 00:59:19;;;;;;;50.55;29.67;;;-0.90;99.90;;;;;;4947123;29;21079;-72
2023/01/26 01:01:48;;;;;;;59.83;31.10;;;-1.00;99.90;;;;;;4946848;29;20422;-72
2023/01/26 01:04:15;;;;;;;54.33;32.05;;;-0.90;99.90;;;;;;4946419;29;20936;-72
2023/01/26 01:06:42;;;;;;;55.08;29.08;;;-0.90;99.90;;;;;;4946068;29;20522;-73
2023/01/26 01:09:09;;;;;;;54.00;29.52;;;-0.90;99.90;;;;;;4947557;28;20453;-72
2023/01/26 01:11:35;;;;;;;50.70;29.88;;;-0.90;99.90;;;;;;4946820;29;20916;-72
2023/01/26 01:14:02;;;;;;;53.00;30.23;;;-0.80;99.90;;;;;;4946495;29;20430;-72
2023/01/26 01:16:29;;;;;;;52.60;30.02;;;-0.90;99.90;;;;;;4947546;29;20425;-71
2023/01/26 01:18:57;;;;;;;49.72;30.00;;;-0.90;99.90;;;;;;4947683;28;20793;-71
2023/01/26 01:21:24;;;;;;;50.70;29.75;;;-0.90;99.90;;;;;;4946123;29;20452;-71
2023/01/26 01:23:51;;;;;;;49.03;28.73;;;-1.00;99.90;;;;;;4947085;29;20508;-73
2023/01/26 01:26:18;;;;;;;51.15;29.35;;;-1.00;99.90;;;;;;4947273;29;20425;-72
2023/01/26 01:28:45;;;;;;;51.33;29.05;;;-0.90;99.90;;;;;;4946913;29;20816;-72
2023/01/26 01:31:14;;;;;;;57.35;32.00;;;-0.90;99.90;;;;;;4946943;29;20452;-73
2023/01/26 01:33:42;;;;;;;56.63;31.70;;;-0.80;99.90;;;;;;4946442;29;21061;-72
2023/01/26 01:36:12;;;;;;;57.03;31.55;;;-0.80;99.90;;;;;;4939304;29;20452;-72
2023/01/26 01:38:39;;;;;;;53.13;30.40;;;-0.80;99.90;;;;;;4949609;29;20422;-71
2023/01/26 01:41:06;;;;;;;52.38;30.15;;;-0.80;99.90;;;;;;4939044;29;20450;-72
2023/01/26 01:43:33;;;;;;;53.28;29.80;;;-0.90;99.90;;;;;;4947509;29;20444;-72
2023/01/26 01:46:01;;;;;;;52.25;29.75;;;-0.90;99.90;;;;;;4949073;28;20437;-72
2023/01/26 01:48:31;;;;;;;54.80;29.60;;;-1.00;99.90;;;;;;4950170;28;21232;-74
2023/01/26 01:51:01;;;;;;;48.53;29.10;;;-1.00;99.90;;;;;;4950339;29;20418;-73
2023/01/26 01:53:32;;;;;;;51.75;29.70;;;-1.00;99.90;;;;;;4950384;29;20426;-73
2023/01/26 01:56:03;;;;;;;55.45;32.13;;;-1.00;99.90;;;;;;4951156;29;20418;-72
2023/01/26 01:58:33;;;;;;;55.33;28.85;;;-1.00;99.90;;;;;;4948969;28;20426;-72
2023/01/26 02:01:00;;;;;;;58.03;30.42;;;-0.90;99.90;;;;;;4949297;29;20445;-72
2023/01/26 02:03:29;;;;;;;50.30;29.40;;;-0.80;99.90;;;;;;4949163;29;20417;-72
2023/01/26 02:06:00;;;;;;;49.03;29.27;;;-0.80;99.90;;;;;;4939810;29;20443;-71
2023/01/26 02:08:33;;;;;;;51.30;28.13;;;-0.90;99.90;;;;;;4950792;28;20445;-72
2023/01/26 02:11:04;;;;;;;48.87;28.03;;;-0.90;99.90;;;;;;4943207;29;20535;-72
2023/01/26 02:13:33;;;;;;;47.27;28.43;;;-1.00;99.90;;;;;;4956112;29;20433;-70
2023/01/26 02:16:00;;;;;;;46.28;28.27;;;-1.00;99.90;;;;;;4957016;29;20417;-71
2023/01/26 02:18:28;;;;;;;46.97;28.90;;;-1.00;99.90;;;;;;4952156;29;20426;-71
2023/01/26 02:20:59;;;;;;;43.95;26.15;;;-0.90;99.90;;;;;;4940741;29;21211;-72
2023/01/26 02:23:39;;;;;;;45.67;27.92;;;-1.00;99.90;;;;;;4950285;29;20448;-73
2023/01/26 02:26:11;;;;;;;50.20;28.30;;;-1.00;99.90;;;;;;4949179;29;20417;-71
2023/01/26 02:28:39;;;;;;;45.17;27.35;;;-0.90;99.90;;;;;;4944735;28;20441;-73
2023/01/26 02:31:06;;;;;;;45.00;27.05;;;-1.00;99.90;;;;;;4949545;29;20437;-74
2023/01/26 02:33:33;;;;;;;45.87;26.40;;;-1.00;99.90;;;;;;4949629;29;20432;-71
2023/01/26 02:36:02;;;;;;;42.95;26.58;;;-0.90;99.90;;;;;;4948402;29;20442;-73
2023/01/26 02:41:09;;;;;;;44.53;26.13;;;-0.90;99.90;;;;;;4966758;23;20451;-78
2023/01/26 02:43:35;;;;;;;44.72;27.27;;;-0.80;99.90;;;;;;4964087;28;20442;-78
2023/01/26 02:46:01;;;;;;;47.60;28.00;;;-0.90;99.90;;;;;;4972927;28;20420;-78
2023/01/26 02:51:12;;;;;;;48.25;29.50;;;-0.90;99.90;;;;;;4939776;29;20498;-78
2023/01/26 02:53:39;;;;;;;46.70;27.55;;;-0.90;99.90;;;;;;4957240;29;20445;-78
2023/01/26 02:56:06;;;;;;;47.40;28.38;;;-0.90;99.90;;;;;;4966994;29;20426;-78
2023/01/26 02:58:33;;;;;;;49.80;28.40;;;-0.90;99.90;;;;;;4964995;28;20436;-78
2023/01/26 03:01:00;;;;;;;52.63;29.52;;;-0.90;99.90;;;;;;4966968;29;20442;-77
2023/01/26 03:03:40;;;;;;;48.35;28.88;;;-0.80;99.90;;;;;;4947571;29;20441;-77
2023/01/26 03:06:09;;;;;;;54.75;29.58;;;-0.80;99.90;;;;;;4947447;29;20449;-77
2023/01/26 03:08:35;;;;;;;48.67;28.92;;;-0.80;99.90;;;;;;4952515;29;20516;-78
2023/01/26 03:11:03;;;;;;;48.30;29.08;;;-0.80;99.90;;;;;;4952085;29;20971;-77
2023/01/26 03:13:31;;;;;;;50.10;29.17;;;-0.80;99.90;;;;;;4946420;29;20879;-77
2023/01/26 03:16:01;;;;;;;49.40;30.05;;;-0.80;99.90;;;;;;4950391;29;20437;-78
2023/01/26 03:29:29;;;;;;;48.63;27.93;;;-0.90;99.90;;;;;;4958077;29;20626;-78
2023/01/26 03:31:58;;;;;;;48.97;28.48;;;-0.90;99.90;;;;;;4968660;29;20433;-79
2023/01/26 03:34:24;;;;;;;49.50;27.75;;;-1.00;99.90;;;;;;4966203;29;20433;-78
2023/01/26 03:36:51;;;;;;;48.17;28.25;;;-0.90;99.90;;;;;;4951994;29;20772;-78
2023/01/26 03:58:40;;;;;;;46.90;27.63;;;-0.90;99.90;;;;;;4951103;29;20413;-77
2023/01/26 04:01:09;;;;;;;45.40;26.48;;;-0.90;99.90;;;;;;4930625;29;20423;-78
2023/01/26 04:09:05;;;;;;;52.03;29.10;;;-0.90;99.90;;;;;;4950944;28;20440;-77
2023/01/26 04:11:32;;;;;;;49.63;27.88;;;-0.90;99.90;;;;;;4951740;29;20778;-77
2023/01/26 04:22:13;;;;;;;51.80;27.80;;;-0.90;99.90;;;;;;4952294;29;20416;-78
2023/01/26 04:24:40;;;;;;;47.43;26.83;;;-0.90;99.90;;;;;;4952895;29;20626;-77
2023/01/26 04:27:07;;;;;;;45.00;27.35;;;-0.80;99.90;;;;;;4948039;29;20442;-76
2023/01/26 04:29:34;;;;;;;45.97;26.80;;;-0.80;99.90;;;;;;4949770;29;20500;-78
2023/01/26 04:32:02;;;;;;;41.22;25.25;;;-0.80;99.90;;;;;;4947510;29;20968;-79
2023/01/26 04:34:29;;;;;;;39.30;24.65;;;-0.90;99.90;;;;;;4950133;29;20928;-77
2023/01/26 04:36:55;;;;;;;42.40;25.73;;;-0.90;99.90;;;;;;4950114;29;20449;-77
2023/01/26 04:39:22;;;;;;;47.30;27.45;;;-0.90;99.90;;;;;;4890097;29;1742399;-80
2023/01/26 04:41:49;;;;;;;46.90;26.65;;;-0.90;99.90;;;;;;4951231;29;20437;-77
2023/01/26 04:44:16;;;;;;;49.70;28.20;;;-0.90;99.90;;;;;;4951050;29;20425;-79
2023/01/26 04:46:43;;;;;;;47.23;26.77;;;-0.90;99.90;;;;;;4943798;29;20587;-78
2023/01/26 04:49:11;;;;;;;44.50;25.98;;;-0.80;99.90;;;;;;4951242;29;20445;-77
2023/01/26 04:51:38;;;;;;;45.58;25.70;;;-0.90;99.90;;;;;;4951328;29;20432;-76
2023/01/26 04:54:05;;;;;;;45.80;26.52;;;-0.90;99.90;;;;;;4951111;29;20426;-78
2023/01/26 04:56:33;;;;;;;43.17;24.27;;;-0.90;99.90;;;;;;4951091;29;20436;-76
2023/01/26 04:59:01;;;;;;;42.65;24.95;;;-0.90;99.90;;;;;;4949073;29;20438;-78
2023/01/26 05:01:28;;;;;;;42.58;24.67;;;-0.90;99.90;;;;;;4956807;29;20467;-79
2023/01/26 05:03:55;;;;;;;43.00;25.40;;;-0.90;99.90;;;;;;4951480;29;20417;-77
2023/01/26 05:06:23;;;;;;;40.72;24.98;;;-0.90;99.90;;;;;;4951465;29;20905;-79
2023/01/26 05:08:50;;;;;;;40.15;24.70;;;-0.80;99.90;;;;;;4945930;28;20502;-77
2023/01/26 05:11:17;;;;;;;39.83;24.80;;;-0.80;99.90;;;;;;4943630;28;20446;-76
2023/01/26 05:13:46;;;;;;;40.67;23.60;;;-0.90;99.90;;;;;;4936655;28;20443;-79
2023/01/26 05:16:13;;;;;;;43.33;24.40;;;-0.90;99.90;;;;;;4943323;28;20443;-78
2023/01/26 05:18:40;;;;;;;42.63;25.45;;;-0.90;99.90;;;;;;4948561;29;20421;-78
2023/01/26 05:21:07;;;;;;;40.58;24.40;;;-0.90;99.90;;;;;;4951896;28;20444;-78
2023/01/26 05:23:35;;;;;;;39.88;23.85;;;-0.90;99.90;;;;;;4945631;29;20431;-78
2023/01/26 05:26:02;;;;;;;39.63;22.55;;;-0.90;99.90;;;;;;4946644;29;20452;-77
2023/01/26 05:28:29;;;;;;;40.40;24.13;;;-0.90;99.90;;;;;;4955828;29;20793;-77
2023/01/26 05:30:56;;;;;;;37.97;22.70;;;-0.90;99.90;;;;;;4950423;29;20907;-78
2023/01/26 05:33:22;;;;;;;36.70;22.67;;;-0.90;99.90;;;;;;4947003;29;20460;-78
2023/01/26 05:35:49;;;;;;;38.85;23.17;;;-0.90;99.90;;;;;;4951032;29;20441;-78
2023/01/26 05:38:16;;;;;;;38.33;24.15;;;-0.80;99.90;;;;;;4952318;29;20440;-76
2023/01/26 05:40:44;;;;;;;35.00;21.95;;;-0.80;99.90;;;;;;4958108;29;20808;-79
2023/01/26 05:43:12;;;;;;;35.10;21.40;;;-0.80;99.90;;;;;;4951286;29;20520;-78
2023/01/26 05:45:39;;;;;;;31.98;20.50;;;-0.80;99.90;;;;;;4937360;29;20766;-76
2023/01/26 05:48:06;;;;;;;33.00;20.67;;;-0.80;99.90;;;;;;4953135;29;20832;-78
2023/01/26 05:50:33;;;;;;;33.83;21.15;;;-0.80;99.90;;;;;;4947036;29;20443;-76
2023/01/26 05:53:01;;;;;;;30.52;19.85;;;-0.80;99.90;;;;;;4945210;28;20441;-77
2023/01/26 05:55:28;;;;;;;32.20;20.38;;;-0.90;99.90;;;;;;4947099;29;20484;-77
2023/01/26 05:57:56;;;;;;;35.67;21.88;;;-0.90;99.90;;;;;;4951465;29;20451;-78
2023/01/26 06:00:23;;;;;;;33.88;20.92;;;-0.90;99.90;;;;;;4952391;29;20435;-78
2023/01/26 06:02:50;;;;;;;30.90;20.90;;;-0.90;99.90;;;;;;4953388;29;20440;-78
2023/01/26 06:05:17;;;;;;;32.57;21.40;;;-0.80;99.90;;;;;;4954019;29;20504;-79
2023/01/26 06:07:44;;;;;;;35.00;20.77;;;-0.80;99.90;;;;;;4954079;29;20509;-76
2023/01/26 06:10:11;;;;;;;37.10;22.30;;;-0.80;99.90;;;;;;4946636;28;20433;-77
2023/01/26 06:12:38;;;;;;;35.40;21.80;;;-0.80;99.90;;;;;;4952724;29;20453;-77
2023/01/26 06:15:08;;;;;;;38.45;23.05;;;-0.80;99.90;;;;;;4948971;29;20449;-77
2023/01/26 06:17:34;;;;;;;40.72;23.35;;;-0.80;99.90;;;;;;4943712;29;20449;-76
2023/01/26 06:20:01;;;;;;;40.05;23.00;;;-0.80;99.90;;;;;;4949164;29;20548;-78
2023/01/26 06:22:28;;;;;;;40.50;24.02;;;-0.80;99.90;;;;;;4948246;29;20464;-79
2023/01/26 06:24:55;;;;;;;46.23;24.60;;;-0.80;99.90;;;;;;4949634;29;20437;-77
2023/01/26 06:27:21;;;;;;;40.38;22.88;;;-0.70;99.90;;;;;;4947419;29;20442;-74
2023/01/26 06:29:48;;;;;;;40.85;23.92;;;-0.70;99.90;;;;;;4941109;29;20443;-75
2023/01/26 06:32:16;;;;;;;42.60;24.00;;;-0.70;99.90;;;;;;4943463;28;20445;-75
2023/01/26 06:34:43;;;;;;;42.58;23.70;;;-0.80;99.90;;;;;;4950822;29;20446;-75
2023/01/26 06:37:10;;;;;;;40.80;23.95;;;-0.80;99.90;;;;;;4952345;29;20425;-75
2023/01/26 06:39:37;;;;;;;42.92;24.38;;;-0.80;99.90;;;;;;4947425;29;20957;-76
2023/01/26 06:42:05;;;;;;;38.45;23.70;;;-0.80;99.90;;;;;;4949361;29;20446;-76
2023/01/26 06:44:31;;;;;;;39.45;22.98;;;-0.70;99.90;;;;;;4945187;29;20458;-76
2023/01/26 06:46:58;;;;;;;44.47;24.50;;;-0.70;99.90;;;;;;4944148;29;20444;-77
2023/01/26 06:49:26;;;;;;;38.15;23.08;;;-0.60;99.90;;;;;;4948851;29;20864;-75
2023/01/26 06:51:57;;;;;;;41.22;22.70;;;-0.60;99.90;;;;;;4954242;29;20429;-75
2023/01/26 06:54:24;;;;;;;44.10;24.35;;;-0.60;99.90;;;;;;4946788;29;20817;-75
2023/01/26 06:56:50;;;;;;;44.20;25.83;;;-0.60;99.90;;;;;;4949103;29;20460;-62
2023/01/26 06:59:17;;;;;;;36.17;22.50;;;-0.50;99.90;;;;;;4943028;29;20770;-63
2023/01/26 07:01:47;;;;;;;40.50;23.48;;;-0.50;99.90;;;;;;4945063;29;20433;-69
2023/01/26 07:04:15;;;;;;;38.35;23.45;;;-0.50;99.90;;;;;;4956328;29;20904;-80
2023/01/26 07:07:06;;;;;;;42.97;23.40;;;-0.50;99.90;;;;;;4950788;29;20440;-78
2023/01/26 07:09:33;;;;;;;39.10;21.98;;;-0.50;99.90;;;;;;4939979;29;20447;-81
2023/01/26 07:12:02;;;;;;;39.15;23.60;;;-0.40;99.90;;;;;;4939182;29;20511;-81
2023/01/26 07:14:29;;;;;;;40.97;24.40;;;-0.40;99.90;;;;;;4951132;29;20532;-78
2023/01/26 07:16:55;;;;;;;39.05;24.45;;;-0.40;99.90;;;;;;4960959;29;20429;-79
2023/01/26 07:19:22;;;;;;;38.05;23.33;;;-0.40;99.90;;;;;;4956527;29;20439;-79
2023/01/26 07:21:51;;;;;;;35.92;22.05;;;-0.30;99.90;;;;;;4962142;29;20789;-80
2023/01/26 07:24:25;;;;;;;33.53;21.58;;;-0.30;99.90;;;;;;4965811;29;20799;-80
2023/01/26 07:26:52;;;;;;;33.33;20.35;;;-0.50;99.90;;;;;;4963373;29;20433;-79
2023/01/26 07:33:22;;;;;;;40.38;24.33;;;-0.60;99.90;;;;;;4972456;29;20816;-81
2023/01/26 07:35:58;;;;;;;40.00;23.75;;;-0.60;99.90;;;;;;4943958;29;20874;-80
2023/01/26 07:38:27;;;;;;;39.30;23.65;;;-0.50;99.90;;;;;;4945513;29;20435;-81
2023/01/26 07:40:57;;;;;;;39.27;23.40;;;-0.50;99.90;;;;;;4941409;29;20524;-81
2023/01/26 07:43:24;;;;;;;37.35;21.70;;;-0.50;99.90;;;;;;4953004;28;20440;-79
2023/01/26 07:45:52;;;;;;;36.95;21.67;;;-0.50;99.90;;;;;;4959680;29;20444;-80
2023/01/26 07:48:22;;;;;;;35.03;21.65;;;-0.50;99.90;;;;;;4966549;28;20440;-79
2023/01/26 07:50:49;;;;;;;36.85;21.27;;;-0.40;99.90;;;;;;4952134;29;20431;-79
2023/01/26 07:53:21;;;;;;;33.72;20.92;;;-0.50;99.90;;;;;;4954332;29;20453;-70
2023/01/26 07:55:49;;;;;;;35.67;20.83;;;-0.40;99.90;;;;;;4954518;29;20455;-76
2023/01/26 07:58:17;;;;;;;32.67;21.35;;;-0.40;99.90;;;;;;4956421;28;20444;-77
2023/01/26 08:00:45;;;;;;;35.83;22.63;;;-0.40;99.90;;;;;;4953663;29;20461;-78
2023/01/26 08:03:12;;;;;;;38.10;22.08;;;-0.50;99.90;;;;;;4952873;29;20430;-80
2023/01/26 08:05:39;;;;;;;37.53;21.88;;;-0.40;99.90;;;;;;4955018;29;20432;-78
2023/01/26 08:08:08;;;;;;;36.53;22.67;;;-0.40;99.90;;;;;;4954658;29;20446;-79
2023/01/26 08:10:35;;;;;;;35.72;20.60;;;-0.40;99.90;;;;;;4950166;28;20498;-78
2023/01/26 08:13:03;;;;;;;34.08;21.40;;;-0.40;99.90;;;;;;4945593;28;20447;-77
2023/01/26 08:15:31;;;;;;;34.00;21.80;;;-0.40;99.90;;;;;;4950270;29;20449;-77
2023/01/26 08:17:57;;;;;;;32.67;21.23;;;-0.50;99.90;;;;;;4954993;29;20829;-77
2023/01/26 08:20:24;;;;;;;37.78;22.05;;;-0.50;99.90;;;;;;4950465;28;20549;-77
2023/01/26 08:22:51;;;;;;;34.65;21.90;;;-0.60;99.90;;;;;;4948107;29;20834;-76
2023/01/26 08:25:18;;;;;;;35.63;21.92;;;-0.50;99.90;;;;;;4955114;29;20446;-78
2023/01/26 08:27:45;;;;;;;38.30;22.58;;;-0.50;99.90;;;;;;4950275;29;20448;-79
2023/01/26 08:30:13;;;;;;;35.30;22.50;;;-0.50;99.90;;;;;;4946022;29;20449;-78
2023/01/26 08:32:42;;;;;;;36.03;22.98;;;-0.40;99.90;;;;;;4947832;29;20459;-76
2023/01/26 08:35:09;;;;;;;33.95;22.75;;;-0.40;99.90;;;;;;4953877;29;20434;-78
2023/01/26 08:37:37;;;;;;;37.67;21.42;;;-0.30;99.90;;;;;;4948245;29;20442;-80
2023/01/26 08:40:05;;;;;;;35.40;20.88;;;-0.20;99.90;;;;;;4948285;29;20471;-78
2023/01/26 08:42:32;;;;;;;37.25;21.40;;;-0.10;99.90;;;;;;4950793;29;20449;-77
2023/01/26 08:44:59;;;;;;;33.47;20.48;;;0.00;99.90;;;;;;4959727;29;20784;-78
2023/01/26 08:47:25;;;;;;;36.22;21.48;;;0.00;99.90;;;;;;4949945;29;20459;-77
2023/01/26 08:49:54;;;;;;;35.25;21.23;;;0.00;99.90;;;;;;4959355;29;20441;-78
2023/01/26 08:52:21;;;;;;;34.35;22.27;;;0.00;99.90;;;;;;4951600;29;20465;-78
2023/01/26 08:54:48;;;;;;;33.75;21.98;;;0.00;99.90;;;;;;4955574;28;20449;-76
2023/01/26 08:57:15;;;;;;;32.40;20.75;;;0.10;99.90;;;;;;4956346;29;20518;-77
2023/01/26 08:59:42;;;;;;;32.47;20.30;;;0.20;99.90;;;;;;4956430;29;20886;-78
2023/01/26 09:02:11;;;;;;;34.47;21.58;;;0.20;99.90;;;;;;4958312;29;20445;-79
2023/01/26 09:04:37;;;;;;;32.58;20.25;;;0.20;99.90;;;;;;4955954;29;20433;-80
2023/01/26 09:07:06;;;;;;;32.33;19.80;;;0.20;99.90;;;;;;4946580;29;20443;-80
2023/01/26 09:09:32;;;;;;;34.10;20.08;;;0.20;99.90;;;;;;4952533;29;20449;-79
2023/01/26 09:11:59;;;;;;;32.45;20.48;;;0.10;99.90;;;;;;4944585;29;20439;-80
2023/01/26 09:14:26;;;;;;;32.53;20.23;;;0.20;99.90;;;;;;4954280;29;20437;-79
2023/01/26 09:16:53;;;;;;;31.33;19.77;;;0.20;99.90;;;;;;4955109;29;20804;-80
2023/01/26 09:19:20;;;;;;;32.85;20.65;;;0.20;99.90;;;;;;4949886;28;20960;-80
2023/01/26 09:21:46;;;;;;;34.15;20.48;;;0.30;99.90;;;;;;4963277;23;20449;-73
2023/01/26 09:24:15;;;;;;;31.40;20.08;;;0.30;99.90;;;;;;4982297;28;20525;-74
2023/01/26 09:26:41;;;;;;;32.90;21.10;;;0.20;99.90;;;;;;4978535;28;20450;-74
2023/01/26 09:29:08;;;;;;;33.00;20.25;;;0.20;99.90;;;;;;4985477;28;20804;-74
2023/01/26 09:31:35;;;;;;;33.40;20.60;;;0.20;99.90;;;;;;4970701;28;20518;-75
2023/01/26 09:34:02;;;;;;;34.30;20.95;;;0.30;99.90;;;;;;4965417;28;20439;-75
2023/01/26 09:36:29;;;;;;;29.70;20.60;;;0.30;99.90;;;;;;4962535;28;20447;-74
2023/01/26 09:38:56;;;;;;;31.15;20.33;;;0.40;99.90;;;;;;4967470;28;20440;-74
2023/01/26 09:41:47;;;;;;;32.55;21.55;;;0.40;99.90;;;;;;4969927;28;20463;-74
2023/01/26 09:44:19;;;;;;;36.22;21.02;;;0.40;99.90;;;;;;4966700;28;21006;-74
2023/01/26 09:46:59;;;;;;;37.08;21.85;;;0.40;99.90;;;;;;4973241;28;20501;-75
2023/01/26 09:49:31;;;;;;;35.10;21.20;;;0.40;99.90;;;;;;4963464;28;20436;-75
2023/01/26 09:52:04;;;;;;;34.60;19.55;;;0.40;99.90;;;;;;4960709;28;20478;-72
2023/01/26 09:54:35;;;;;;;39.10;22.50;;;0.40;99.90;;;;;;4964211;28;20834;-73
2023/01/26 09:57:13;;;;;;;38.45;22.25;;;0.40;99.90;;;;;;4962136;28;20839;-73
2023/01/26 09:59:48;;;;;;;36.13;22.17;;;0.40;99.90;;;;;;4966649;28;20427;-75
2023/01/26 10:02:28;;;;;;;37.80;22.23;;;0.40;99.90;;;;;;4962013;28;20436;-74
2023/01/26 10:05:01;;;;;;;40.40;22.75;;;0.30;99.90;;;;;;4964658;28;20443;-75
2023/01/26 10:07:28;;;;;;;37.75;22.08;;;0.40;99.90;;;;;;4965394;28;20961;-74
2023/01/26 10:09:56;;;;;;;37.85;21.58;;;0.40;99.90;;;;;;4966936;28;20423;-77
2023/01/26 10:12:27;;;;;;;38.10;21.83;;;0.40;99.90;;;;;;4968458;28;20846;-76
2023/01/26 10:15:00;;;;;;;41.70;22.70;;;0.30;99.90;;;;;;4961595;28;20456;-75
2023/01/26 10:17:31;;;;;;;41.03;22.65;;;0.30;99.90;;;;;;4965846;28;20469;-75
2023/01/26 10:20:03;;;;;;;42.22;23.63;;;0.40;99.90;;;;;;4967621;28;20436;-75
2023/01/26 10:22:36;;;;;;;44.22;24.85;;;0.40;99.90;;;;;;4961118;28;20443;-75
2023/01/26 10:25:11;;;;;;;42.78;23.50;;;0.40;99.90;;;;;;4967071;28;20468;-75
2023/01/26 10:27:39;;;;;;;39.83;24.42;;;0.40;99.90;;;;;;4964311;28;20929;-75
2023/01/26 10:30:08;;;;;;;40.17;23.48;;;0.40;99.90;;;;;;4968302;28;20435;-78
2023/01/26 10:32:43;;;;;;;42.50;23.40;;;0.40;99.90;;;;;;4964655;28;20935;-74
2023/01/26 10:35:17;;;;;;;41.58;22.85;;;0.40;99.90;;;;;;4969575;28;20427;-75
2023/01/26 10:37:44;;;;;;;43.00;24.45;;;0.40;99.90;;;;;;4967176;28;20942;-72
2023/01/26 10:40:11;;;;;;;43.67;24.27;;;0.50;99.90;;;;;;4968834;28;20440;-75
2023/01/26 10:42:40;;;;;;;40.88;23.63;;;0.50;99.90;;;;;;4961901;28;20441;-74
2023/01/26 10:45:24;;;;;;;37.42;23.02;;;0.40;99.90;;;;;;4963613;28;20443;-73
2023/01/26 10:48:14;;;;;;;42.03;24.17;;;0.50;99.90;;;;;;4963719;28;20439;-75
2023/01/26 10:50:40;;;;;;;42.15;24.63;;;0.50;99.90;;;;;;4969035;28;20463;-75
2023/01/26 10:53:15;;;;;;;40.70;23.80;;;0.50;99.90;;;;;;4965549;28;20467;-73
2023/01/26 10:55:42;;;;;;;39.00;21.90;;;0.60;99.90;;;;;;4960210;28;20440;-74
2023/01/26 10:58:42;;;;;;;35.53;20.73;;;0.60;99.90;;;;;;4967360;28;20779;-75
2023/01/26 11:01:17;;;;;;;39.25;23.40;;;0.60;99.90;;;;;;4963600;28;20449;-75
2023/01/26 11:04:01;;;;;;;39.58;23.92;;;0.70;99.90;;;;;;4961799;28;20527;-74
2023/01/26 11:06:29;;;;;;;40.65;23.17;;;0.80;99.90;;;;;;4965551;28;20448;-75
2023/01/26 11:09:09;;;;;;;40.10;23.60;;;0.90;99.90;;;;;;4968186;28;20890;-74
2023/01/26 11:11:36;;;;;;;39.05;22.00;;;1.00;99.90;;;;;;4966540;28;20491;-74
2023/01/26 11:14:11;;;;;;;35.45;23.30;;;1.10;99.90;;;;;;4961409;28;21202;-74
2023/01/26 11:16:41;;;;;;;38.97;22.92;;;1.20;99.90;;;;;;4968264;28;20439;-74
2023/01/26 11:19:13;;;;;;;36.88;24.15;;;1.20;99.90;;;;;;4970282;28;20530;-74
2023/01/26 11:21:43;;;;;;;39.22;23.40;;;1.20;99.90;;;;;;4974177;28;20431;-75
2023/01/26 11:24:19;;;;;;;39.80;23.45;;;1.20;99.90;;;;;;4972687;28;20440;-74
2023/01/26 11:27:11;;;;;;;36.50;21.85;;;1.10;99.90;;;;;;4978708;28;20459;-76
2023/01/26 11:29:51;;;;;;;35.88;23.55;;;1.10;99.90;;;;;;4975099;28;20432;-74
2023/01/26 11:32:26;;;;;;;38.80;23.30;;;1.00;99.90;;;;;;4977913;28;20938;-76
2023/01/26 11:35:04;;;;;;;41.33;23.80;;;1.00;99.90;;;;;;4965625;28;21082;-74
2023/01/26 11:37:42;;;;;;;36.60;23.13;;;1.10;99.90;;;;;;4968843;28;20428;-72
2023/01/26 11:40:22;;;;;;;37.22;22.52;;;1.10;99.90;;;;;;4965471;28;20443;-73
2023/01/26 11:42:58;;;;;;;37.80;22.38;;;1.10;99.90;;;;;;4963587;28;20534;-75
2023/01/26 11:45:32;;;;;;;35.40;20.30;;;1.00;99.90;;;;;;4963241;28;20451;-73
2023/01/26 11:48:15;;;;;;;38.50;22.75;;;1.00;99.90;;;;;;4967374;28;20512;-75
2023/01/26 11:50:47;;;;;;;40.08;22.77;;;0.90;99.90;;;;;;4968014;28;20447;-73
2023/01/26 11:53:47;;;;;;;36.15;23.42;;;1.00;99.90;;;;;;4966350;28;20432;-73
2023/01/26 11:56:25;;;;;;;39.28;23.52;;;1.00;99.90;;;;;;4967670;28;20894;-73
2023/01/26 11:58:58;;;;;;;34.28;22.67;;;1.10;99.90;;;;;;4968784;28;20424;-73
2023/01/26 12:01:29;;;;;;;36.90;23.10;;;1.10;99.90;;;;;;4956025;28;20779;-74
2023/01/26 12:03:57;;;;;;;35.50;21.33;;;1.10;99.90;;;;;;4963618;28;20447;-73
2023/01/26 12:06:31;;;;;;;36.07;20.90;;;1.10;99.90;;;;;;4962164;28;20437;-75
2023/01/26 12:09:02;;;;;;;37.15;23.10;;;1.10;99.90;;;;;;4966204;28;20950;-73
2023/01/26 12:11:35;;;;;;;34.00;22.30;;;1.10;99.90;;;;;;4963515;28;20817;-74
2023/01/26 12:14:18;;;;;;;39.70;22.38;;;1.10;99.90;;;;;;4966988;28;20424;-74
2023/01/26 12:16:58;;;;;;;36.83;22.67;;;1.10;99.90;;;;;;4962772;28;20447;-74
2023/01/26 12:19:43;;;;;;;37.63;23.03;;;1.20;99.90;;;;;;4965063;28;20424;-74
2023/01/26 12:22:16;;;;;;;37.78;23.70;;;1.20;99.90;;;;;;4962935;28;20439;-74
2023/01/26 12:24:49;;;;;;;41.50;24.40;;;1.20;99.90;;;;;;4966076;28;20444;-74
2023/01/26 12:27:21;;;;;;;40.88;24.40;;;1.10;99.90;;;;;;4965712;28;21253;-74
2023/01/26 12:29:52;;;;;;;41.53;25.17;;;1.20;99.90;;;;;;4967405;28;20427;-75
2023/01/26 12:32:21;;;;;;;44.58;25.52;;;1.20;99.90;;;;;;4961495;28;20454;-75
2023/01/26 12:34:49;;;;;;;44.97;25.85;;;1.10;99.90;;;;;;4966660;28;20485;-75
2023/01/26 12:37:33;;;;;;;44.05;25.20;;;1.20;99.90;;;;;;4966250;28;21351;-76
2023/01/26 12:40:12;;;;;;;42.55;24.70;;;1.20;99.90;;;;;;4963768;28;20443;-72
2023/01/26 12:42:46;;;;;;;47.77;26.53;;;1.20;99.90;;;;;;4963678;28;20428;-76
2023/01/26 12:45:18;;;;;;;41.53;23.98;;;1.20;99.90;;;;;;4964704;28;20441;-73
2023/01/26 12:47:50;;;;;;;37.42;23.00;;;1.20;99.90;;;;;;4959984;28;20436;-75
2023/01/26 12:50:25;;;;;;;39.53;24.30;;;1.10;99.90;;;;;;4962531;28;20443;-75
2023/01/26 12:52:56;;;;;;;39.67;22.90;;;1.20;99.90;;;;;;4963471;28;20436;-73
2023/01/26 12:55:26;;;;;;;39.90;22.80;;;1.20;99.90;;;;;;4963547;28;20439;-76
2023/01/26 12:57:58;;;;;;;35.63;21.63;;;1.30;99.90;;;;;;4965955;28;20425;-73
2023/01/26 13:00:28;;;;;;;37.65;22.67;;;1.40;99.90;;;;;;4961948;28;20452;-75
2023/01/26 13:02:59;;;;;;;33.90;21.10;;;1.40;99.90;;;;;;4958878;28;20440;-74
2023/01/26 13:05:30;;;;;;;32.28;21.42;;;1.50;99.90;;;;;;4964356;28;20436;-75
2023/01/26 13:07:57;;;;;;;32.10;20.50;;;1.40;99.90;;;;;;4958915;28;20546;-74
2023/01/26 13:10:29;;;;;;;29.60;19.63;;;1.40;99.90;;;;;;4964839;28;20498;-73
2023/01/26 13:12:59;;;;;;;33.90;20.27;;;1.40;99.90;;;;;;4959210;28;20482;-74
2023/01/26 13:15:28;;;;;;;30.20;20.52;;;1.50;99.90;;;;;;4962917;28;20452;-74
2023/01/26 13:17:57;;;;;;;26.70;17.73;;;1.50;99.90;;;;;;4966860;28;20431;-75
2023/01/26 13:20:50;;;;;;;27.15;18.77;;;1.60;99.90;;;;;;4965960;28;20447;-74
2023/01/26 13:23:51;;;;;;;24.93;17.57;;;1.60;99.90;;;;;;4961438;28;20484;-74
2023/01/26 13:26:21;;;;;;;29.53;18.40;;;1.60;99.90;;;;;;4962889;28;20433;-73
2023/01/26 13:28:49;;;;;;;21.85;15.55;;;1.70;99.90;;;;;;4959319;28;20443;-75
2023/01/26 13:31:32;;;;;;;21.75;15.00;;;1.70;99.90;;;;;;4962572;28;20444;-73
2023/01/26 13:34:05;;;;;;;24.40;16.48;;;1.70;99.90;;;;;;4962685;28;20527;-74
2023/01/26 13:36:35;;;;;;;22.10;16.25;;;1.70;99.90;;;;;;4965895;28;20448;-74
2023/01/26 13:39:11;;;;;;;22.45;16.20;;;1.70;99.90;;;;;;4966804;28;20448;-73